Time;durP1;ratioP1;P1;durP2;ratioP2;P2;SDS_P1;SDS_P2;PMS_P1;PMS_P2;Temp;Humidity;BMP_temperature;BMP_pressure;BME280_temperature;BME280_humidity;BME280_pressure;Samples;Min_cycle;Max_cycle;Signal;HPM_P1;HPM_P2
2023/05/11 00:01:06;;;;;;;2.35;1.52;;;;;;;21.64;58.79;100586.28;5036565;28;20046;-55
2023/05/11 00:03:34;;;;;;;2.95;1.90;;;;;;;21.64;58.92;100588.13;5036506;28;20053;-55
2023/05/11 00:06:02;;;;;;;2.20;1.50;;;;;;;21.64;58.94;100583.59;5036066;28;20049;-55
2023/05/11 00:08:29;;;;;;;2.50;1.60;;;;;;;21.64;58.64;100577.38;5034882;28;20049;-54
2023/05/11 00:10:59;;;;;;;3.03;1.73;;;;;;;21.64;58.53;100572.81;5036340;28;20050;-56
2023/05/11 00:13:27;;;;;;;2.70;1.73;;;;;;;21.64;58.46;100572.81;5036307;28;20037;-57
2023/05/11 00:15:55;;;;;;;2.78;1.50;;;;;;;21.64;58.91;100580.06;5036091;28;20057;-57
2023/05/11 00:18:22;;;;;;;2.50;1.55;;;;;;;21.64;58.70;100580.91;5036244;28;20045;-57
2023/05/11 00:20:50;;;;;;;2.42;1.20;;;;;;;21.63;59.04;100568.44;5036108;28;20057;-55
2023/05/11 00:23:17;;;;;;;3.83;1.63;;;;;;;21.63;58.70;100568.44;5034950;28;20411;-55
2023/05/11 00:25:44;;;;;;;2.45;1.50;;;;;;;21.63;58.55;100563.06;5036064;28;20038;-55
2023/05/11 00:28:12;;;;;;;3.08;1.48;;;;;;;21.64;58.65;100566.59;5035974;28;20062;-54
2023/05/11 00:30:40;;;;;;;3.22;1.45;;;;;;;21.64;58.37;100561.19;5034799;28;20064;-55
2023/05/11 00:33:07;;;;;;;2.50;1.55;;;;;;;21.63;58.41;100563.06;5035987;28;20383;-55
2023/05/11 00:35:34;;;;;;;2.58;1.75;;;;;;;21.63;58.58;100565.75;5036113;28;20053;-54
2023/05/11 00:38:02;;;;;;;2.67;1.52;;;;;;;21.64;58.31;100569.28;5035757;28;20052;-55
2023/05/11 00:40:32;;;;;;;2.80;1.35;;;;;;;21.62;58.32;100566.72;5034030;28;20050;-54
2023/05/11 00:43:00;;;;;;;2.50;1.15;;;;;;;21.63;58.35;100568.44;5034023;28;20049;-54
2023/05/11 00:45:28;;;;;;;2.53;1.60;;;;;;;21.63;58.16;100562.19;5035520;28;20037;-54
2023/05/11 00:47:56;;;;;;;2.22;1.48;;;;;;;21.63;58.37;100567.56;5035711;28;20041;-55
2023/05/11 00:50:25;;;;;;;2.65;1.45;;;;;;;21.62;57.99;100566.72;5034221;28;20400;-56
2023/05/11 00:52:53;;;;;;;2.67;1.45;;;;;;;21.62;58.04;100565.88;5034292;28;20404;-56
2023/05/11 00:55:21;;;;;;;2.92;1.45;;;;;;;21.62;57.91;100565.88;5035423;28;20038;-57
2023/05/11 00:57:49;;;;;;;3.35;1.70;;;;;;;21.62;57.91;100564.03;5035485;28;20497;-57
2023/05/11 01:00:17;;;;;;;3.67;1.70;;;;;;;21.61;57.77;100565.03;5035485;28;20049;-54
2023/05/11 01:02:45;;;;;;;2.38;1.80;;;;;;;21.61;58.05;100556.94;5035356;28;20086;-54
2023/05/11 01:05:13;;;;;;;3.35;1.38;;;;;;;21.61;57.54;100559.66;5035275;28;20042;-54
2023/05/11 01:07:49;;;;;;;3.03;1.30;;;;;;;21.62;57.88;100565.88;5034240;28;20056;-55
2023/05/11 01:10:40;;;;;;;2.30;1.30;;;;;;;21.61;57.88;100553.41;5035186;28;20068;-56
2023/05/11 01:13:32;;;;;;;2.55;1.52;;;;;;;21.61;57.89;100562.34;5034156;28;20049;-57
2023/05/11 01:16:05;;;;;;;2.25;1.40;;;;;;;21.62;57.79;100555.09;5033912;28;20061;-56
2023/05/11 01:18:37;;;;;;;2.05;1.10;;;;;;;21.60;57.96;100568.75;5033861;28;20049;-56
2023/05/11 01:21:14;;;;;;;2.60;1.35;;;;;;;21.61;58.09;100564.19;5033614;28;20076;-55
2023/05/11 01:23:44;;;;;;;3.13;1.27;;;;;;;21.61;57.96;100567.72;5034000;28;20052;-55
2023/05/11 01:26:46;;;;;;;2.33;1.30;;;;;;;21.60;57.89;100563.34;5033764;28;20054;-55
2023/05/11 01:29:32;;;;;;;2.25;1.40;;;;;;;21.60;57.94;100568.75;5033856;28;20049;-55
2023/05/11 01:32:05;;;;;;;2.70;1.63;;;;;;;21.60;57.94;100562.50;5033558;28;20056;-55
2023/05/11 01:34:35;;;;;;;2.30;1.20;;;;;;;21.60;57.94;100565.19;5033779;28;20491;-55
2023/05/11 01:37:12;;;;;;;1.90;1.10;;;;;;;21.60;57.96;100567.91;5034686;28;20048;-54
2023/05/11 01:39:53;;;;;;;2.20;1.45;;;;;;;21.59;58.12;100561.66;5033311;28;20049;-54
2023/05/11 01:42:27;;;;;;;2.65;1.13;;;;;;;21.59;58.03;100567.06;5034217;28;20052;-56
2023/05/11 01:44:56;;;;;;;2.92;1.08;;;;;;;21.59;58.32;100563.47;5032930;28;20053;-56
2023/05/11 01:47:26;;;;;;;2.58;1.02;;;;;;;21.59;58.57;100566.19;5034196;28;20059;-55
2023/05/11 01:49:55;;;;;;;2.33;1.10;;;;;;;21.60;58.16;100565.19;5034395;28;20072;-56
2023/05/11 01:52:24;;;;;;;1.80;0.88;;;;;;;21.59;57.98;100566.19;5033094;28;20045;-55
2023/05/11 01:54:54;;;;;;;2.97;2.00;;;;;;;21.59;58.81;100560.78;5034322;28;20049;-56
2023/05/11 01:57:23;;;;;;;2.15;1.30;;;;;;;21.59;59.84;100569.75;5033748;28;20056;-56
2023/05/11 01:59:52;;;;;;;2.10;1.17;;;;;;;21.59;59.44;100568.88;5032786;28;20053;-57
2023/05/11 02:02:20;;;;;;;1.67;0.93;;;;;;;21.58;59.49;100570.72;5034061;28;20048;-58
2023/05/11 02:04:49;;;;;;;2.17;1.40;;;;;;;21.59;58.60;100568.88;5034462;28;20057;-58
2023/05/11 02:07:18;;;;;;;2.83;1.00;;;;;;;21.58;58.68;100562.63;5034068;28;20041;-57
2023/05/11 02:09:47;;;;;;;1.85;0.80;;;;;;;21.58;58.39;100556.41;5032650;28;20054;-57
2023/05/11 02:12:18;;;;;;;2.25;1.02;;;;;;;21.58;58.58;100567.19;5032940;28;20053;-55
2023/05/11 02:14:48;;;;;;;2.60;1.17;;;;;;;21.59;58.65;100555.41;5032956;28;20065;-54
2023/05/11 02:17:20;;;;;;;1.77;1.00;;;;;;;21.57;58.63;100560.97;5033837;28;20042;-55
2023/05/11 02:19:49;;;;;;;2.23;1.10;;;;;;;21.59;58.45;100550.00;5016756;28;20056;-53
2023/05/11 02:22:19;;;;;;;2.95;1.05;;;;;;;21.58;58.92;100554.56;5033827;28;20045;-53
2023/05/11 02:24:47;;;;;;;1.75;0.90;;;;;;;21.58;59.34;100543.78;5033885;28;20068;-53
2023/05/11 02:27:15;;;;;;;2.22;1.13;;;;;;;21.58;58.98;100549.16;5033655;28;20041;-53
2023/05/11 02:29:42;;;;;;;1.48;0.60;;;;;;;21.59;59.27;100547.31;5033902;28;20052;-53
2023/05/11 02:32:17;;;;;;;3.00;1.08;;;;;;;21.59;58.40;100550.00;5033696;28;20045;-53
2023/05/11 02:35:06;;;;;;;2.60;0.88;;;;;;;21.59;58.58;100558.97;5032423;28;20049;-53
2023/05/11 02:37:40;;;;;;;2.20;1.13;;;;;;;21.58;58.33;100554.56;5032309;28;20045;-53
2023/05/11 02:40:16;;;;;;;1.77;0.88;;;;;;;21.58;58.59;100554.56;5032374;28;20053;-53
2023/05/11 02:42:49;;;;;;;2.67;1.08;;;;;;;21.58;58.44;100548.31;5032605;28;20080;-53
2023/05/11 02:45:18;;;;;;;1.88;0.88;;;;;;;21.57;58.45;100550.19;5032268;28;20050;-53
2023/05/11 02:47:51;;;;;;;3.33;1.00;;;;;;;21.57;58.48;100547.50;5033566;28;20068;-53
2023/05/11 02:50:24;;;;;;;1.60;0.80;;;;;;;21.57;58.18;100543.94;5032351;28;20514;-54
2023/05/11 02:52:55;;;;;;;1.88;0.80;;;;;;;21.57;58.27;100546.66;5032509;28;20060;-54
2023/05/11 02:55:26;;;;;;;2.00;1.00;;;;;;;21.57;58.72;100541.25;5016129;28;20052;-55
2023/05/11 02:57:54;;;;;;;1.58;0.60;;;;;;;21.57;58.67;100542.09;5032007;28;20054;-54
2023/05/11 03:00:22;;;;;;;1.88;0.80;;;;;;;21.57;59.13;100538.56;5032204;28;20053;-54
2023/05/11 03:02:50;;;;;;;1.38;0.70;;;;;;;21.57;58.39;100535.88;5032382;28;20050;-54
2023/05/11 03:05:20;;;;;;;1.80;0.80;;;;;;;21.56;58.59;100532.34;5034871;28;20057;-54
2023/05/11 03:07:47;;;;;;;3.45;1.02;;;;;;;21.56;58.41;100532.34;5036328;28;20057;-54
2023/05/11 03:10:15;;;;;;;1.95;1.00;;;;;;;21.57;58.43;100535.88;5037105;28;20060;-54
2023/05/11 03:12:45;;;;;;;3.55;0.88;;;;;;;21.56;58.50;100535.03;5035978;28;20049;-55
2023/05/11 03:15:14;;;;;;;2.00;1.02;;;;;;;21.55;58.48;100537.84;5035955;28;20054;-54
2023/05/11 03:17:45;;;;;;;2.83;1.00;;;;;;;21.55;58.40;100535.16;5036396;28;20392;-54
2023/05/11 03:20:16;;;;;;;2.95;0.85;;;;;;;21.55;58.19;100540.56;5036351;28;20069;-53
2023/05/11 03:22:45;;;;;;;2.65;0.70;;;;;;;21.55;58.39;100537.84;5035954;28;20057;-53
2023/05/11 03:25:15;;;;;;;1.33;0.60;;;;;;;21.55;58.33;100538.69;5035981;28;20053;-53
2023/05/11 03:27:45;;;;;;;4.05;0.80;;;;;;;21.54;58.25;100539.72;5035736;28;20049;-53
2023/05/11 03:30:15;;;;;;;4.10;0.90;;;;;;;21.54;58.13;100531.63;5035821;28;20427;-52
2023/05/11 03:32:47;;;;;;;2.33;0.60;;;;;;;21.54;58.27;100534.31;5035624;28;20065;-52
2023/05/11 03:35:15;;;;;;;3.58;0.90;;;;;;;21.55;58.34;100533.31;5035876;28;20415;-53
2023/05/11 03:37:44;;;;;;;1.73;0.80;;;;;;;21.54;58.23;100530.78;5035874;28;20045;-53
2023/05/11 03:40:15;;;;;;;1.40;0.60;;;;;;;21.54;58.15;100530.78;5035629;28;20053;-54
2023/05/11 03:42:53;;;;;;;3.88;1.08;;;;;;;21.53;58.24;100529.94;5035515;28;20495;-54
2023/05/11 03:45:22;;;;;;;2.20;0.85;;;;;;;21.54;58.09;100528.94;5035478;28;20060;-54
2023/05/11 03:47:51;;;;;;;1.90;0.80;;;;;;;21.54;58.10;100528.09;5035459;28;20050;-54
2023/05/11 03:50:20;;;;;;;3.35;0.90;;;;;;;21.52;58.04;100528.25;5035524;28;20052;-54
2023/05/11 03:52:48;;;;;;;2.78;0.77;;;;;;;21.54;58.10;100536.16;5019136;28;20053;-54
2023/05/11 03:55:16;;;;;;;1.95;0.80;;;;;;;21.53;57.96;100526.41;5035568;28;20053;-54
2023/05/11 03:57:43;;;;;;;1.70;0.70;;;;;;;21.53;58.11;100535.31;5036547;28;20049;-55
2023/05/11 04:00:11;;;;;;;1.92;0.88;;;;;;;21.53;58.17;100534.47;5036571;28;20048;-52
2023/05/11 04:02:44;;;;;;;1.75;0.85;;;;;;;21.53;58.04;100540.72;5035203;28;20060;-53
2023/05/11 04:05:12;;;;;;;1.90;0.85;;;;;;;21.54;58.09;100538.88;5035365;28;20060;-53
2023/05/11 04:07:43;;;;;;;2.92;0.80;;;;;;;21.53;58.12;100540.72;5034877;28;20049;-53
2023/05/11 04:10:10;;;;;;;1.67;0.77;;;;;;;21.53;58.13;100548.78;5034874;28;20068;-54
2023/05/11 04:12:38;;;;;;;2.03;0.80;;;;;;;21.52;58.11;100539.03;5034881;28;20064;-54
2023/05/11 04:15:06;;;;;;;1.20;0.40;;;;;;;21.52;58.18;100539.03;5035832;28;20056;-55
2023/05/11 04:17:33;;;;;;;2.05;0.93;;;;;;;21.52;58.05;100533.63;5034896;28;20112;-54
2023/05/11 04:20:00;;;;;;;1.83;0.80;;;;;;;21.53;58.34;100538.03;5036220;28;20365;-53
2023/05/11 04:22:28;;;;;;;2.53;0.70;;;;;;;21.52;58.18;100541.72;5035926;28;20403;-53
2023/05/11 04:24:55;;;;;;;1.38;0.70;;;;;;;21.52;58.17;100536.34;5036030;28;20045;-53
2023/05/11 04:27:22;;;;;;;1.65;0.88;;;;;;;21.53;58.16;100543.41;5034810;28;20053;-53
2023/05/11 04:29:50;;;;;;;2.05;0.70;;;;;;;21.52;58.21;100535.50;5035992;28;20392;-53
2023/05/11 04:32:17;;;;;;;2.45;0.73;;;;;;;21.53;58.21;100540.72;5035903;28;20128;-52
2023/05/11 04:34:45;;;;;;;1.55;0.70;;;;;;;21.52;58.24;100540.88;5035778;28;20049;-53
2023/05/11 04:37:12;;;;;;;1.88;0.80;;;;;;;21.52;58.12;100538.19;5034367;28;20061;-52
2023/05/11 04:39:41;;;;;;;2.03;0.85;;;;;;;21.51;58.16;100531.91;5034725;28;20060;-54
2023/05/11 04:42:09;;;;;;;1.85;0.90;;;;;;;21.51;58.14;100529.22;5034674;28;20072;-54
2023/05/11 04:44:36;;;;;;;1.77;0.80;;;;;;;21.51;57.84;100526.53;5034606;28;20049;-54
2023/05/11 04:47:05;;;;;;;2.95;0.70;;;;;;;21.50;58.08;100535.63;5034640;28;20042;-54
2023/05/11 04:49:32;;;;;;;1.67;0.80;;;;;;;21.51;58.02;100529.22;5034384;28;20057;-54
2023/05/11 04:52:00;;;;;;;3.80;0.73;;;;;;;21.53;58.14;100534.47;5034606;28;20504;-53
2023/05/11 04:54:29;;;;;;;1.52;0.70;;;;;;;21.51;58.25;100529.22;5034391;28;20053;-54
2023/05/11 04:56:57;;;;;;;1.05;0.60;;;;;;;21.51;58.37;100531.06;5034216;28;20495;-53
2023/05/11 04:59:27;;;;;;;2.10;0.70;;;;;;;21.51;58.24;100531.06;5034006;28;20384;-54
2023/05/11 05:01:54;;;;;;;1.45;0.65;;;;;;;21.52;58.25;100530.09;5034366;28;20056;-54
2023/05/11 05:04:23;;;;;;;2.00;0.60;;;;;;;21.51;58.16;100533.78;5034282;28;20060;-54
2023/05/11 05:06:50;;;;;;;2.90;0.80;;;;;;;21.51;58.12;100533.78;5034026;28;20049;-54
2023/05/11 05:09:18;;;;;;;1.92;0.82;;;;;;;21.50;58.04;100535.63;5034903;28;20050;-55
2023/05/11 05:11:45;;;;;;;1.35;0.57;;;;;;;21.51;58.13;100539.16;5034088;28;20057;-54
2023/05/11 05:14:12;;;;;;;2.05;0.95;;;;;;;21.51;58.22;100545.38;5034989;28;20049;-55
2023/05/11 05:16:40;;;;;;;1.45;0.70;;;;;;;21.50;58.05;100535.63;5034106;28;20057;-54
2023/05/11 05:19:08;;;;;;;4.13;0.75;;;;;;;21.49;57.98;100539.31;5033939;28;20053;-54
2023/05/11 05:21:36;;;;;;;3.47;1.00;;;;;;;21.51;57.97;100541.84;5033712;28;20049;-53
2023/05/11 05:24:05;;;;;;;2.78;0.60;;;;;;;21.51;58.19;100542.69;5033857;28;20057;-56
2023/05/11 05:26:33;;;;;;;1.30;0.52;;;;;;;21.50;58.09;100542.88;5033148;28;20053;-56
2023/05/11 05:29:00;;;;;;;1.67;0.80;;;;;;;21.50;58.09;100540.16;5033425;28;20128;-56
2023/05/11 05:31:29;;;;;;;1.40;0.63;;;;;;;21.50;57.98;100534.78;5033689;28;20411;-56
2023/05/11 05:33:56;;;;;;;1.85;0.50;;;;;;;21.50;58.16;100540.16;5034956;28;20053;-56
2023/05/11 05:36:24;;;;;;;2.05;0.80;;;;;;;21.50;58.08;100540.16;5033252;28;20049;-56
2023/05/11 05:38:52;;;;;;;0.80;0.40;;;;;;;21.49;58.08;100533.94;5033174;28;20072;-57
2023/05/11 05:41:21;;;;;;;1.80;0.47;;;;;;;21.50;58.01;100540.16;5033616;28;20053;-57
2023/05/11 05:43:48;;;;;;;1.52;0.50;;;;;;;21.50;58.05;100540.16;5033865;28;20396;-57
2023/05/11 05:46:17;;;;;;;1.02;0.45;;;;;;;21.50;58.09;100540.16;5033437;28;20087;-57
2023/05/11 05:48:44;;;;;;;1.40;0.50;;;;;;;21.50;58.17;100534.78;5016848;28;20053;-57
2023/05/11 05:51:11;;;;;;;1.17;0.50;;;;;;;21.49;58.28;100531.25;5033384;28;20064;-57
2023/05/11 05:53:39;;;;;;;1.90;0.77;;;;;;;21.49;58.09;100539.31;5033250;28;20041;-57
2023/05/11 05:56:06;;;;;;;2.05;0.50;;;;;;;21.49;58.07;100536.63;5032818;28;20053;-57
2023/05/11 05:58:37;;;;;;;1.17;0.52;;;;;;;21.48;58.20;100533.09;5032599;28;20056;-57
2023/05/11 06:01:07;;;;;;;1.45;0.60;;;;;;;21.49;58.09;100531.25;5034249;28;20041;-57
2023/05/11 06:03:35;;;;;;;1.50;0.55;;;;;;;21.49;58.06;100528.56;5033105;28;20049;-57
2023/05/11 06:06:03;;;;;;;1.52;0.68;;;;;;;21.49;58.06;100531.25;5033178;28;20380;-57
2023/05/11 06:08:30;;;;;;;2.10;0.88;;;;;;;21.50;58.19;100529.41;5033019;28;20121;-57
2023/05/11 06:10:58;;;;;;;1.15;0.55;;;;;;;21.48;58.06;100530.41;5033023;28;20053;-57
2023/05/11 06:13:25;;;;;;;1.55;0.82;;;;;;;21.49;58.12;100531.25;5034059;28;20046;-57
2023/05/11 06:15:58;;;;;;;1.50;0.60;;;;;;;21.49;58.06;100523.16;5032333;28;20515;-58
2023/05/11 06:18:31;;;;;;;1.80;0.52;;;;;;;21.49;58.15;100525.84;5032993;28;20046;-57
2023/05/11 06:21:01;;;;;;;2.17;0.70;;;;;;;21.49;58.21;100528.56;5032636;28;20392;-57
2023/05/11 06:23:30;;;;;;;1.40;0.65;;;;;;;21.49;58.25;100523.16;5032834;28;20050;-57
2023/05/11 06:25:58;;;;;;;1.35;0.60;;;;;;;21.49;58.44;100525.84;5034196;28;20053;-58
2023/05/11 06:28:28;;;;;;;1.92;0.70;;;;;;;21.48;58.48;100516.09;5032843;28;20480;-57
2023/05/11 06:31:02;;;;;;;1.83;0.77;;;;;;;21.49;58.27;100525.84;5032779;28;20419;-57
2023/05/11 06:33:33;;;;;;;2.83;0.80;;;;;;;21.48;58.30;100516.94;5032235;28;20056;-58
2023/05/11 06:36:05;;;;;;;1.02;0.40;;;;;;;21.50;58.43;100521.31;5032636;28;20053;-57
2023/05/11 06:38:34;;;;;;;2.42;0.68;;;;;;;21.49;58.55;100520.47;5032267;28;20061;-57
2023/05/11 06:41:02;;;;;;;2.15;0.63;;;;;;;21.49;58.44;100517.78;5032276;28;20053;-56
2023/05/11 06:43:29;;;;;;;3.85;0.70;;;;;;;21.50;58.51;100518.63;5033466;28;20053;-56
2023/05/11 06:46:00;;;;;;;1.67;0.85;;;;;;;21.49;58.47;100517.78;5032169;28;20045;-56
2023/05/11 06:48:28;;;;;;;2.42;0.60;;;;;;;21.50;58.60;100519.47;5032186;28;20052;-56
2023/05/11 06:50:58;;;;;;;1.55;0.60;;;;;;;21.50;58.74;100518.63;5032038;28;20079;-56
2023/05/11 06:53:25;;;;;;;2.47;0.55;;;;;;;21.50;58.67;100518.63;5032335;28;20056;-56
2023/05/11 06:55:53;;;;;;;2.40;0.75;;;;;;;21.50;58.75;100530.25;5033459;28;20052;-57
2023/05/11 06:58:21;;;;;;;2.15;0.55;;;;;;;21.52;58.73;100530.09;5031885;28;20057;-57
2023/05/11 07:00:48;;;;;;;2.05;0.40;;;;;;;21.50;58.85;100524.84;5033391;28;20053;-57
2023/05/11 07:03:16;;;;;;;2.83;0.85;;;;;;;21.53;58.79;100529.09;5033171;28;20045;-58
2023/05/11 07:05:44;;;;;;;2.65;1.10;;;;;;;21.53;58.68;100526.41;5033416;28;20077;-58
2023/05/11 07:08:11;;;;;;;4.47;0.77;;;;;;;21.52;58.66;100530.09;5033175;28;20045;-58
2023/05/11 07:10:38;;;;;;;2.45;0.75;;;;;;;21.53;58.77;100531.78;5033243;28;20403;-57
2023/05/11 07:13:05;;;;;;;1.83;0.75;;;;;;;21.51;58.68;100534.63;5033374;28;20052;-57
2023/05/11 07:15:33;;;;;;;1.35;0.50;;;;;;;21.52;58.78;100536.34;5033107;28;20407;-57
2023/05/11 07:18:00;;;;;;;1.67;0.63;;;;;;;21.53;58.76;100534.47;5032328;28;20050;-57
2023/05/11 07:20:28;;;;;;;2.25;0.98;;;;;;;21.53;58.68;100534.47;5032942;28;20056;-59
2023/05/11 07:22:57;;;;;;;2.88;0.95;;;;;;;21.53;58.37;100534.47;5032130;28;20061;-59
2023/05/11 07:25:24;;;;;;;2.47;1.08;;;;;;;21.53;58.06;100531.78;5032798;28;20049;-59
2023/05/11 07:27:52;;;;;;;2.97;1.50;;;;;;;21.53;57.38;100539.88;5032610;28;20380;-59
2023/05/11 07:30:19;;;;;;;3.92;1.90;;;;;;;21.51;57.00;100531.91;5032813;28;20046;-58
2023/05/11 07:32:50;;;;;;;2.78;1.50;;;;;;;21.50;57.20;100530.25;5039984;28;20049;-59
2023/05/11 07:35:18;;;;;;;2.33;1.20;;;;;;;21.50;57.01;100532.94;5052281;28;20494;-59
2023/05/11 07:37:48;;;;;;;3.50;1.67;;;;;;;21.50;56.59;100529.41;5052619;28;20048;-58
2023/05/11 07:40:15;;;;;;;2.90;1.88;;;;;;;21.48;56.58;100530.41;5052524;28;20495;-57
2023/05/11 07:42:43;;;;;;;3.38;1.92;;;;;;;21.49;56.51;100531.25;5052528;28;20060;-57
2023/05/11 07:45:10;;;;;;;2.40;1.10;;;;;;;21.48;56.82;100530.41;5052445;28;20056;-58
2023/05/11 07:47:47;;;;;;;2.53;1.60;;;;;;;21.48;56.37;100530.41;5052293;28;20403;-57
2023/05/11 07:50:14;;;;;;;5.30;2.22;;;;;;;21.48;55.81;100537.63;5053226;28;20053;-58
2023/05/11 07:52:43;;;;;;;4.20;1.90;;;;;;;21.48;55.89;100526.88;5056099;28;20064;-59
2023/05/11 07:55:10;;;;;;;4.35;1.30;;;;;;;21.47;56.55;100530.53;5056217;28;20049;-59
2023/05/11 07:57:37;;;;;;;3.10;1.65;;;;;;;21.47;56.72;100528.72;5055967;28;20052;-59
2023/05/11 08:00:06;;;;;;;4.90;2.53;;;;;;;21.46;55.40;100529.69;5055967;28;20075;-61
2023/05/11 08:02:37;;;;;;;3.72;2.65;;;;;;;21.40;54.88;100526.78;5062901;28;20056;-61
2023/05/11 08:05:06;;;;;;;4.57;3.00;;;;;;;21.36;54.70;100533.47;5055715;28;20075;-62
2023/05/11 08:07:33;;;;;;;4.95;3.05;;;;;;;21.30;54.38;100531.34;5055646;28;20041;-62
2023/05/11 08:10:00;;;;;;;5.07;3.05;;;;;;;21.27;53.97;100523.56;5055686;28;20040;-61
2023/05/11 08:12:28;;;;;;;5.40;3.65;;;;;;;21.23;53.54;100528.44;5055833;28;20045;-62
2023/05/11 08:14:55;;;;;;;6.78;3.65;;;;;;;21.20;53.47;100526.03;5055683;28;20064;-62
2023/05/11 08:17:22;;;;;;;4.88;3.60;;;;;;;21.17;53.19;100524.47;5055761;28;20045;-62
2023/05/11 08:19:50;;;;;;;6.40;4.00;;;;;;;21.16;53.33;100530.88;5055784;28;20041;-61
2023/05/11 08:22:17;;;;;;;4.85;3.63;;;;;;;21.14;53.48;100522.09;5054494;28;20052;-61
2023/05/11 08:24:45;;;;;;;5.13;3.30;;;;;;;21.13;53.68;100528.47;5053930;28;20403;-62
2023/05/11 08:27:14;;;;;;;3.92;2.95;;;;;;;21.11;54.06;100535.88;5055505;28;20049;-62
2023/05/11 08:29:41;;;;;;;4.38;3.17;;;;;;;21.11;53.93;100532.34;5055510;28;20391;-59
2023/05/11 08:32:08;;;;;;;5.70;3.60;;;;;;;21.10;53.91;100536.84;5055468;28;20099;-58
2023/05/11 08:34:36;;;;;;;3.78;2.83;;;;;;;21.06;53.90;100532.75;5055320;28;20045;-58
2023/05/11 08:37:04;;;;;;;4.47;3.15;;;;;;;21.05;53.57;100533.75;5055323;28;20060;-58
2023/05/11 08:39:34;;;;;;;4.60;3.20;;;;;;;21.03;53.81;100543.84;5055351;28;20053;-60
2023/05/11 08:42:17;;;;;;;5.25;3.20;;;;;;;20.99;54.13;100540.59;5055418;28;20406;-58
2023/05/11 08:44:46;;;;;;;4.63;3.05;;;;;;;20.96;54.12;100534.66;5055176;28;20056;-58
2023/05/11 08:47:14;;;;;;;3.88;2.50;;;;;;;20.93;54.32;100532.28;5055172;28;20053;-58
2023/05/11 08:49:44;;;;;;;4.70;3.15;;;;;;;20.92;53.92;100531.44;5055125;28;20052;-61
2023/05/11 08:52:13;;;;;;;4.20;2.97;;;;;;;20.91;53.88;100540.50;5055072;28;20502;-62
2023/05/11 08:54:40;;;;;;;4.53;3.03;;;;;;;20.90;53.71;100533.44;5054922;28;20049;-62
2023/05/11 08:57:08;;;;;;;4.80;2.83;;;;;;;20.88;54.21;100537.25;5055109;28;20045;-63
2023/05/11 08:59:36;;;;;;;4.50;2.80;;;;;;;20.86;54.29;100529.31;5055020;28;20049;-61
2023/05/11 09:02:05;;;;;;;5.10;2.67;;;;;;;20.86;54.55;100544.63;5052722;28;20045;-62
2023/05/11 09:04:35;;;;;;;3.78;2.33;;;;;;;20.85;54.50;100542.94;5055034;28;20048;-62
2023/05/11 09:07:03;;;;;;;4.53;2.58;;;;;;;20.84;54.66;100541.25;5055011;28;20045;-62
2023/05/11 09:09:30;;;;;;;4.32;2.20;;;;;;;20.82;54.42;100552.13;5054637;28;20041;-60
2023/05/11 09:11:58;;;;;;;5.35;2.63;;;;;;;20.81;54.44;100544.22;5054715;28;20052;-62
2023/05/11 09:14:26;;;;;;;3.85;2.42;;;;;;;20.80;54.22;100543.38;5054573;28;20057;-62
2023/05/11 09:16:54;;;;;;;2.80;1.75;;;;;;;20.79;54.00;100546.22;5054766;28;20053;-62
2023/05/11 09:19:21;;;;;;;3.80;2.10;;;;;;;20.77;54.35;100545.50;5053242;28;20486;-61
2023/05/11 09:21:51;;;;;;;4.03;1.92;;;;;;;20.77;54.19;100550.91;5054456;28;20045;-59
2023/05/11 09:24:19;;;;;;;3.22;1.98;;;;;;;20.76;54.70;100550.06;5054522;28;20049;-59
2023/05/11 09:26:47;;;;;;;3.42;1.90;;;;;;;20.73;54.77;100539.59;5054372;28;20044;-59
2023/05/11 09:29:19;;;;;;;4.22;2.25;;;;;;;20.73;55.73;100548.50;5054373;28;20044;-59
2023/05/11 09:31:46;;;;;;;3.50;2.05;;;;;;;20.73;56.11;100543.13;5054562;28;20049;-58
2023/05/11 09:34:19;;;;;;;4.35;2.63;;;;;;;20.75;56.53;100548.38;5054227;28;20049;-58
2023/05/11 09:36:49;;;;;;;2.97;2.20;;;;;;;20.74;56.56;100547.53;5053205;28;20049;-59
2023/05/11 09:39:18;;;;;;;3.38;2.35;;;;;;;20.74;56.97;100539.44;5054157;28;20056;-59
2023/05/11 09:42:20;;;;;;;3.78;2.17;;;;;;;20.74;57.10;100544.84;5054324;28;20044;-57
2023/05/11 09:44:51;;;;;;;4.18;3.13;;;;;;;20.76;57.07;100535.75;5054243;28;20045;-57
2023/05/11 09:47:21;;;;;;;4.07;2.45;;;;;;;20.78;56.88;100539.13;5053995;28;20419;-60
2023/05/11 09:49:48;;;;;;;3.83;3.00;;;;;;;20.77;56.81;100537.44;5053838;28;20076;-60
2023/05/11 09:52:19;;;;;;;4.43;2.40;;;;;;;20.76;56.93;100539.28;5053736;28;20060;-61
2023/05/11 09:54:50;;;;;;;4.13;2.95;;;;;;;20.76;56.85;100535.75;5053904;28;20045;-61
2023/05/11 09:57:28;;;;;;;3.33;1.90;;;;;;;20.77;57.03;100537.44;5053878;28;20048;-61
2023/05/11 09:59:57;;;;;;;3.20;2.20;;;;;;;20.78;57.13;100534.59;5053974;28;20048;-57
2023/05/11 10:02:30;;;;;;;3.92;2.30;;;;;;;20.79;57.12;100530.09;5052689;28;20395;-57
2023/05/11 10:05:01;;;;;;;3.47;2.22;;;;;;;20.80;57.11;100535.31;5053690;28;20053;-57
2023/05/11 10:07:34;;;;;;;3.85;2.15;;;;;;;20.81;57.01;100533.47;5053572;28;20049;-57
2023/05/11 10:10:07;;;;;;;3.83;2.05;;;;;;;20.83;56.99;100535.03;5053463;28;20048;-58
2023/05/11 10:12:38;;;;;;;3.30;2.00;;;;;;;20.86;56.93;100532.00;5053691;28;20045;-58
2023/05/11 10:15:09;;;;;;;2.80;1.30;;;;;;;20.89;56.90;100539.78;5053232;28;20056;-58
2023/05/11 10:17:37;;;;;;;2.45;1.20;;;;;;;20.93;57.03;100535.81;5053098;28;20048;-58
2023/05/11 10:20:05;;;;;;;2.55;1.45;;;;;;;20.95;56.74;100539.22;5053463;28;20067;-57
2023/05/11 10:22:32;;;;;;;3.13;1.15;;;;;;;20.99;56.75;100534.38;5053582;28;20510;-57
2023/05/11 10:25:01;;;;;;;3.00;1.05;;;;;;;21.01;56.57;100532.38;5053236;28;20483;-57
2023/05/11 10:27:30;;;;;;;2.15;1.10;;;;;;;21.04;56.68;100532.06;5053367;28;20567;-57
2023/05/11 10:29:58;;;;;;;3.45;1.13;;;;;;;21.05;56.60;100531.06;5053252;28;20427;-57
2023/05/11 10:32:26;;;;;;;3.45;0.98;;;;;;;21.07;56.60;100528.25;5053368;28;20044;-58
2023/05/11 10:34:55;;;;;;;2.08;0.90;;;;;;;21.09;56.54;100521.69;5053089;28;20055;-58
2023/05/11 10:37:23;;;;;;;1.70;0.90;;;;;;;21.10;56.62;100523.38;5053019;28;20049;-58
2023/05/11 10:39:51;;;;;;;2.20;1.15;;;;;;;21.11;56.50;100525.09;5053425;28;20471;-58
2023/05/11 10:42:36;;;;;;;1.75;1.00;;;;;;;21.13;56.73;100528.47;5053324;28;20040;-58
2023/05/11 10:45:21;;;;;;;2.20;0.90;;;;;;;21.14;56.56;100522.09;5053353;28;20482;-58
2023/05/11 10:48:01;;;;;;;1.38;0.75;;;;;;;21.15;56.94;100521.09;5053547;28;20394;-57
2023/05/11 10:50:44;;;;;;;2.33;0.60;;;;;;;21.16;56.56;100522.78;5053229;28;20045;-58
2023/05/11 10:53:30;;;;;;;1.55;0.80;;;;;;;21.17;56.66;100518.25;5053218;28;20072;-57
2023/05/11 10:56:22;;;;;;;1.63;0.90;;;;;;;21.18;56.69;100525.31;5053167;28;20123;-58
2023/05/11 10:58:53;;;;;;;1.92;1.00;;;;;;;21.18;56.67;100526.16;5053152;28;20494;-58
2023/05/11 11:01:40;;;;;;;1.58;0.90;;;;;;;21.18;56.62;100518.09;5053142;28;20041;-58
2023/05/11 11:04:10;;;;;;;2.17;1.00;;;;;;;21.19;56.63;100510.88;5053037;28;20464;-58
2023/05/11 11:06:43;;;;;;;2.25;0.90;;;;;;;21.20;56.64;100520.66;5053198;28;20041;-58
2023/05/11 11:09:15;;;;;;;1.65;1.00;;;;;;;21.20;56.64;100517.97;5052963;28;20037;-58
2023/05/11 11:11:45;;;;;;;1.60;0.80;;;;;;;21.21;56.63;100520.50;5052988;28;20052;-58
2023/05/11 11:14:14;;;;;;;1.88;0.73;;;;;;;21.21;56.71;100523.19;5052675;28;20286;-58
2023/05/11 11:17:15;;;;;;;2.53;0.93;;;;;;;21.21;56.81;100515.09;5053111;28;20049;-58
2023/05/11 11:19:43;;;;;;;1.50;0.68;;;;;;;21.22;56.71;100519.47;5053004;28;20508;-58
2023/05/11 11:22:40;;;;;;;2.13;0.80;;;;;;;21.21;56.73;100519.66;5052714;28;20502;-58
2023/05/11 11:25:09;;;;;;;3.25;0.90;;;;;;;21.21;56.73;100520.50;5053402;28;20045;-57
2023/05/11 11:27:39;;;;;;;1.42;0.80;;;;;;;21.22;56.80;100513.25;5056985;28;20045;-58
2023/05/11 11:30:29;;;;;;;2.70;0.90;;;;;;;21.23;56.81;100517.66;5056816;28;20041;-58
2023/05/11 11:33:06;;;;;;;1.83;0.88;;;;;;;21.23;56.80;100521.19;5055543;28;20056;-58
2023/05/11 11:35:46;;;;;;;1.50;0.80;;;;;;;21.23;56.88;100513.13;5056368;28;20049;-57
2023/05/11 11:38:18;;;;;;;1.90;0.90;;;;;;;21.24;56.78;100525.56;5056364;28;20053;-57